createdAt,value
2023-03-13T00:01:47.213Z,100058.67
2023-03-13T00:04:15.376Z,100047.73
2023-03-13T00:06:43.459Z,100050.29
2023-03-13T00:09:13.936Z,100051.66
2023-03-13T00:11:42.832Z,100051.30
2023-03-13T00:14:10.996Z,100050.27
2023-03-13T00:16:39.904Z,100042.75
2023-03-13T00:19:08.962Z,100043.06
2023-03-13T00:21:41.468Z,100041.69
2023-03-13T00:24:12.480Z,100043.56
2023-03-13T00:26:40.697Z,100046.30
2023-03-13T00:29:08.779Z,100048.50
2023-03-13T00:31:37.652Z,100046.46
2023-03-13T00:34:05.857Z,100051.56
2023-03-13T00:36:35.776Z,100054.81
2023-03-13T00:39:06.086Z,100053.63
2023-03-13T00:41:37.446Z,100054.48
2023-03-13T00:44:07.193Z,100037.58
2023-03-13T00:46:35.595Z,100033.30
2023-03-13T00:49:04.191Z,100026.45
2023-03-13T00:51:35.716Z,100017.04
2023-03-13T00:54:04.960Z,100010.55
2023-03-13T00:56:34.393Z,100004.21
2023-03-13T00:59:03.012Z,99996.36
2023-03-13T01:01:34.259Z,99987.81
2023-03-13T01:04:06.055Z,99982.88
2023-03-13T01:06:37.237Z,99975.84
2023-03-13T01:09:07.198Z,99968.00
2023-03-13T01:11:37.756Z,99963.73
2023-03-13T01:14:09.565Z,99963.73
2023-03-13T01:16:39.064Z,99965.77
2023-03-13T01:19:13.663Z,99953.98
2023-03-13T01:21:43.702Z,99943.73
2023-03-13T01:24:12.000Z,99946.31
2023-03-13T01:26:40.405Z,99943.23
2023-03-13T01:29:08.795Z,99942.54
2023-03-13T01:31:37.528Z,99941.70
2023-03-13T01:34:08.664Z,99932.45
2023-03-13T01:36:38.065Z,99926.29
2023-03-13T01:39:06.246Z,99918.59
2023-03-13T01:41:34.345Z,99908.50
2023-03-13T01:44:02.553Z,99910.38
2023-03-13T01:46:34.688Z,99908.84
2023-03-13T01:49:25.237Z,99906.42
2023-03-13T01:52:05.869Z,99902.31
2023-03-13T01:54:43.024Z,99906.60
2023-03-13T01:57:26.525Z,99898.89
2023-03-13T02:00:08.545Z,99900.08
2023-03-13T02:02:55.547Z,99899.06
2023-03-13T02:05:26.671Z,99901.98
2023-03-13T02:08:07.505Z,99897.86
2023-03-13T02:10:45.049Z,99892.21
2023-03-13T02:13:15.498Z,99891.85
2023-03-13T02:15:44.936Z,99897.84
2023-03-13T02:18:13.830Z,99906.40
2023-03-13T02:20:42.217Z,99910.52
2023-03-13T02:23:22.672Z,99902.98
2023-03-13T02:25:53.664Z,99896.80
2023-03-13T02:28:35.098Z,99895.45
2023-03-13T02:31:06.503Z,99897.33
2023-03-13T02:33:41.253Z,99896.98
2023-03-13T02:36:14.297Z,99893.72
2023-03-13T02:38:56.425Z,99896.30
2023-03-13T02:41:25.789Z,99892.54
2023-03-13T02:43:56.022Z,99892.36
2023-03-13T02:46:24.756Z,99887.75
2023-03-13T02:48:57.195Z,99880.89
2023-03-13T02:51:44.980Z,99868.91
2023-03-13T02:54:19.374Z,99855.89
2023-03-13T02:56:51.205Z,99853.17
2023-03-13T02:59:19.368Z,99845.98
2023-03-13T03:01:47.783Z,99842.57
2023-03-13T03:04:15.884Z,99847.20
2023-03-13T03:06:44.108Z,99841.73
2023-03-13T03:09:12.366Z,99834.54
2023-03-13T03:11:41.158Z,99825.30
2023-03-13T03:14:13.715Z,99825.12
2023-03-13T03:16:44.880Z,99812.28
2023-03-13T03:19:13.199Z,99807.84
2023-03-13T03:21:41.384Z,99799.45
2023-03-13T03:24:09.518Z,99799.45
2023-03-13T03:26:37.870Z,99798.77
2023-03-13T03:29:12.210Z,99796.89
2023-03-13T03:31:41.092Z,99787.65
2023-03-13T03:34:10.470Z,99788.50
2023-03-13T03:36:39.037Z,99790.73
2023-03-13T03:39:07.308Z,99784.39
2023-03-13T03:41:37.456Z,99782.51
2023-03-13T03:44:06.767Z,99779.77
2023-03-13T03:46:57.781Z,99788.33
2023-03-13T03:49:27.331Z,99795.85
2023-03-13T03:51:55.675Z,99781.31
2023-03-13T03:54:29.425Z,99768.30
2023-03-13T03:56:58.004Z,99766.08
2023-03-13T03:59:26.357Z,99759.58
2023-03-13T04:02:05.093Z,99756.66
2023-03-13T04:04:34.170Z,99754.44
2023-03-13T04:07:19.130Z,99757.17
2023-03-13T04:09:47.455Z,99758.69
2023-03-13T04:12:23.352Z,99749.29
2023-03-13T04:14:54.072Z,99744.31
2023-03-13T04:17:22.477Z,99734.05
2023-03-13T04:19:50.663Z,99732.69
2023-03-13T04:22:19.113Z,99722.75
2023-03-13T04:24:51.776Z,99722.41
2023-03-13T04:27:21.349Z,99719.31
2023-03-13T04:29:50.210Z,99715.54
2023-03-13T04:32:41.901Z,99713.14
2023-03-13T04:35:10.310Z,99704.07
2023-03-13T04:38:02.646Z,99699.78
2023-03-13T04:40:56.811Z,99692.41
2023-03-13T04:43:51.130Z,99696.02
2023-03-13T04:46:48.838Z,99696.00
2023-03-13T04:49:52.230Z,99691.88
2023-03-13T04:52:52.451Z,99683.98
2023-03-13T04:55:41.418Z,99676.80
2023-03-13T04:58:38.008Z,99673.52
2023-03-13T05:01:12.764Z,99665.81
2023-03-13T05:04:11.427Z,99660.31
2023-03-13T05:06:59.360Z,99659.96
2023-03-13T05:09:33.507Z,99656.02
2023-03-13T05:12:19.303Z,99655.12
2023-03-13T05:15:07.580Z,99653.38
2023-03-13T05:17:57.167Z,99650.98
2023-03-13T05:20:50.596Z,99648.39
2023-03-13T05:23:37.531Z,99641.70
2023-03-13T05:26:22.564Z,99635.17
2023-03-13T05:29:09.649Z,99630.02
2023-03-13T05:31:50.153Z,99628.98
2023-03-13T05:34:31.212Z,99629.98
2023-03-13T05:36:59.292Z,99621.42
2023-03-13T05:39:39.689Z,99623.46
2023-03-13T05:42:22.546Z,99621.23
2023-03-13T05:45:01.279Z,99622.76
2023-03-13T05:47:48.199Z,99620.85
2023-03-13T05:50:39.578Z,99614.49
2023-03-13T05:53:22.443Z,99611.20
2023-03-13T05:56:13.615Z,99609.83
2023-03-13T05:58:59.177Z,99594.20
2023-03-13T06:01:37.307Z,99594.88
2023-03-13T06:04:13.909Z,99600.84
2023-03-13T06:06:42.534Z,99593.09
2023-03-13T06:09:11.871Z,99586.06
2023-03-13T06:11:41.782Z,99584.33
2023-03-13T06:14:10.315Z,99581.04
2023-03-13T06:16:44.432Z,99580.50
2023-03-13T06:19:24.529Z,99580.48
2023-03-13T06:21:53.059Z,99571.35
2023-03-13T06:24:21.086Z,99572.04
2023-03-13T06:26:50.422Z,99567.36
2023-03-13T06:29:18.743Z,99557.23
2023-03-13T06:31:46.961Z,99557.05
2023-03-13T06:34:15.362Z,99556.85
2023-03-13T06:36:43.677Z,99549.45
2023-03-13T06:39:12.744Z,99555.92
2023-03-13T06:41:40.961Z,99551.62
2023-03-13T06:44:08.981Z,99550.04
2023-03-13T06:46:37.123Z,99549.15
2023-03-13T06:49:06.394Z,99545.87
2023-03-13T06:51:34.471Z,99543.95
2023-03-13T06:54:03.518Z,99541.02
2023-03-13T06:56:32.367Z,99533.77
2023-03-13T06:59:00.741Z,99534.79
2023-03-13T07:01:28.853Z,99531.16
2023-03-13T07:03:57.145Z,99535.92
2023-03-13T07:06:25.355Z,99528.16
2023-03-13T07:08:53.567Z,99528.48
2023-03-13T07:11:21.788Z,99520.55
2023-03-13T07:13:49.824Z,99518.30
2023-03-13T07:16:18.318Z,99524.09
2023-03-13T07:18:46.405Z,99516.85
2023-03-13T07:21:14.633Z,99511.67
2023-03-13T07:23:42.729Z,99503.91
2023-03-13T07:26:16.679Z,99501.82
2023-03-13T07:28:44.826Z,99492.30
2023-03-13T07:31:20.999Z,99490.40
2023-03-13T07:33:49.803Z,99484.85
2023-03-13T07:36:17.979Z,99477.77
2023-03-13T07:38:49.998Z,99475.67
2023-03-13T07:41:18.710Z,99467.03
2023-03-13T07:43:46.847Z,99461.67
2023-03-13T07:46:20.248Z,99463.67
2023-03-13T07:48:49.197Z,99452.46
2023-03-13T07:51:25.286Z,99452.75
2023-03-13T07:53:58.685Z,99454.27
2023-03-13T07:56:26.898Z,99455.39
2023-03-13T07:58:54.946Z,99451.21
2023-03-13T08:01:27.885Z,99445.65
2023-03-13T08:03:58.863Z,99439.41
2023-03-13T08:06:32.618Z,99435.73
2023-03-13T08:09:02.106Z,99431.20
2023-03-13T08:11:30.385Z,99422.35
2023-03-13T08:13:58.626Z,99422.79
2023-03-13T08:16:29.620Z,99425.31
2023-03-13T08:18:58.880Z,99426.63
2023-03-13T08:21:29.476Z,99423.14
2023-03-13T08:23:59.974Z,99416.36
2023-03-13T08:26:30.452Z,99412.18
2023-03-13T08:29:01.982Z,99408.69
2023-03-13T08:31:33.380Z,99402.46
2023-03-13T08:34:01.551Z,99400.00
2023-03-13T08:36:36.025Z,99401.33
2023-03-13T08:39:16.268Z,99388.54
2023-03-13T08:41:44.447Z,99386.05
2023-03-13T08:44:15.196Z,99378.61
2023-03-13T08:46:44.278Z,99379.41
2023-03-13T08:49:13.449Z,99370.58
2023-03-13T08:51:42.304Z,99367.61
2023-03-13T08:54:10.833Z,99365.98
2023-03-13T08:56:39.022Z,99361.77
2023-03-13T08:59:07.237Z,99362.20
2023-03-13T09:01:36.805Z,99360.08
2023-03-13T09:04:05.563Z,99358.11
2023-03-13T09:06:35.996Z,99355.31
2023-03-13T09:09:05.882Z,99352.52
2023-03-13T09:11:36.247Z,99344.05
2023-03-13T09:14:04.387Z,99332.98
2023-03-13T09:16:35.026Z,99329.81
2023-03-13T09:19:03.166Z,99326.49
2023-03-13T09:21:33.781Z,99324.69
2023-03-13T09:24:02.404Z,99320.85
2023-03-13T09:26:30.818Z,99316.52
2023-03-13T09:28:59.117Z,99307.38
2023-03-13T09:31:32.639Z,99309.20
2023-03-13T09:34:01.309Z,99309.15
2023-03-13T09:36:29.649Z,99309.78
2023-03-13T09:38:59.552Z,99305.27
2023-03-13T09:41:45.517Z,99300.92
2023-03-13T09:44:20.038Z,99297.05
2023-03-13T09:46:54.057Z,99288.71
2023-03-13T09:49:37.930Z,99278.87
2023-03-13T09:52:15.850Z,99277.23
2023-03-13T09:54:50.122Z,99266.81
2023-03-13T09:57:22.289Z,99266.89
2023-03-13T10:00:21.980Z,99261.13
2023-03-13T10:03:11.994Z,99253.64
2023-03-13T10:05:46.583Z,99249.87
2023-03-13T10:08:24.812Z,99243.76
2023-03-13T10:11:11.783Z,99240.90
2023-03-13T10:13:55.275Z,99239.25
2023-03-13T10:16:26.655Z,99231.58
2023-03-13T10:18:58.284Z,99225.29
2023-03-13T10:21:34.174Z,99218.31
2023-03-13T10:24:36.988Z,99218.90
2023-03-13T10:27:05.087Z,99209.86
2023-03-13T10:29:33.694Z,99204.10
2023-03-13T10:32:05.183Z,99199.00
2023-03-13T10:35:06.138Z,99192.58
2023-03-13T10:37:43.965Z,99194.05
2023-03-13T10:40:25.277Z,99184.30
2023-03-13T10:43:01.402Z,99176.66
2023-03-13T10:45:36.006Z,99171.61
2023-03-13T10:48:13.046Z,99165.67
2023-03-13T10:50:49.519Z,99159.73
2023-03-13T10:53:20.299Z,99148.42
2023-03-13T10:55:48.699Z,99144.73
2023-03-13T10:58:35.506Z,99135.33
2023-03-13T11:01:16.800Z,99127.66
2023-03-13T11:03:46.738Z,99116.16
2023-03-13T11:06:37.773Z,99116.40
2023-03-13T11:09:16.405Z,99104.23
2023-03-13T11:12:11.942Z,99098.30
2023-03-13T11:14:40.936Z,99093.96
2023-03-13T11:17:12.123Z,99085.75
2023-03-13T11:20:01.108Z,99081.49
2023-03-13T11:22:50.500Z,99075.36
2023-03-13T11:25:39.437Z,99070.76
2023-03-13T11:28:50.638Z,99058.92
2023-03-13T11:31:42.553Z,99047.80
2023-03-13T11:34:36.340Z,99038.06
2023-03-13T11:37:15.385Z,99027.83
2023-03-13T11:39:52.833Z,99016.58
2023-03-13T11:42:42.880Z,99010.50
2023-03-13T11:45:40.755Z,99008.18
2023-03-13T11:48:20.829Z,99004.70
2023-03-13T11:50:55.252Z,98992.97
2023-03-13T11:53:26.513Z,98990.37
2023-03-13T11:56:32.797Z,98984.09
2023-03-13T11:59:24.916Z,98978.02
2023-03-13T12:02:02.814Z,98976.31
2023-03-13T12:04:37.141Z,98975.63
2023-03-13T12:07:20.809Z,98975.96
2023-03-13T12:10:03.112Z,98975.23
2023-03-13T12:12:44.658Z,98963.63
2023-03-13T12:15:28.095Z,98943.38
2023-03-13T12:18:24.302Z,98927.81
2023-03-13T12:21:12.438Z,98917.95
2023-03-13T12:23:48.954Z,98906.71
2023-03-13T12:26:21.043Z,98896.83
2023-03-13T12:29:17.285Z,98890.89
2023-03-13T12:32:04.564Z,98888.29
2023-03-13T12:34:41.678Z,98887.92
2023-03-13T12:37:20.143Z,98880.30
2023-03-13T12:39:57.981Z,98871.29
2023-03-13T12:42:40.135Z,98863.47
2023-03-13T12:45:14.801Z,98860.16
2023-03-13T12:48:04.676Z,98865.84
2023-03-13T12:50:45.331Z,98862.69
2023-03-13T12:54:10.370Z,98861.91
2023-03-13T12:56:44.372Z,98858.60
2023-03-13T12:59:15.236Z,98851.79
2023-03-13T13:01:47.589Z,98838.99
2023-03-13T13:04:17.851Z,98843.12
2023-03-13T13:07:03.268Z,98834.13
2023-03-13T13:09:37.355Z,98824.91
2023-03-13T13:12:14.778Z,98818.48
2023-03-13T13:14:49.060Z,98823.88
2023-03-13T13:17:39.150Z,98824.59
2023-03-13T13:20:26.714Z,98820.85
2023-03-13T13:22:55.219Z,98802.60
2023-03-13T13:25:34.092Z,98797.16
2023-03-13T13:28:35.361Z,98799.75
2023-03-13T13:31:41.940Z,98794.63
2023-03-13T13:34:30.910Z,98786.74
2023-03-13T13:37:00.481Z,98781.67
2023-03-13T13:39:40.542Z,98774.20
2023-03-13T13:42:30.761Z,98769.02
2023-03-13T13:45:01.807Z,98761.13
2023-03-13T13:47:33.617Z,98750.48
2023-03-13T13:50:02.438Z,98749.17
2023-03-13T13:52:41.847Z,98749.09
2023-03-13T13:55:22.246Z,98747.56
2023-03-13T13:57:59.320Z,98740.70
2023-03-13T14:00:35.026Z,98740.56
2023-03-13T14:03:03.751Z,98738.55
2023-03-13T14:05:32.706Z,98736.95
2023-03-13T14:08:08.802Z,98730.39
2023-03-13T14:10:40.216Z,98720.91
2023-03-13T14:13:17.278Z,98715.55
2023-03-13T14:15:50.199Z,98718.84
2023-03-13T14:18:21.095Z,98724.22
2023-03-13T14:20:59.471Z,98719.77
2023-03-13T14:23:42.296Z,98707.23
2023-03-13T14:26:19.933Z,98712.08
2023-03-13T14:29:03.801Z,98712.81
2023-03-13T14:31:39.255Z,98699.69
2023-03-13T14:34:11.858Z,98709.63
2023-03-13T14:37:11.171Z,98711.63
2023-03-13T14:39:48.863Z,98701.66
2023-03-13T14:42:18.872Z,98693.25
2023-03-13T14:44:50.601Z,98700.56
2023-03-13T14:47:31.343Z,98694.58
2023-03-13T14:50:12.619Z,98692.77
2023-03-13T14:52:50.810Z,98684.39
2023-03-13T14:55:22.237Z,98688.94
2023-03-13T14:58:01.484Z,98687.39
2023-03-13T15:00:40.774Z,98679.46
2023-03-13T15:03:20.321Z,98685.93
2023-03-13T15:06:05.509Z,98682.30
2023-03-13T15:08:38.802Z,98673.46
2023-03-13T15:11:34.145Z,98674.52
2023-03-13T15:14:02.478Z,98670.61
2023-03-13T15:16:30.774Z,98667.20
2023-03-13T15:18:58.926Z,98663.42
2023-03-13T15:21:33.476Z,98668.66
2023-03-13T15:24:15.036Z,98666.35
2023-03-13T15:26:43.674Z,98668.01
2023-03-13T15:29:11.818Z,98675.85
2023-03-13T15:31:40.291Z,98673.56
2023-03-13T15:34:13.429Z,98675.71
2023-03-13T15:36:42.770Z,98673.59
2023-03-13T15:39:16.323Z,98675.77
2023-03-13T15:41:44.479Z,98671.18
2023-03-13T15:44:12.699Z,98672.30
2023-03-13T15:46:40.998Z,98670.35
2023-03-13T15:49:13.063Z,98678.95
2023-03-13T15:51:41.412Z,98679.59
2023-03-13T15:54:09.657Z,98683.87
2023-03-13T15:56:39.145Z,98681.04
2023-03-13T15:59:12.607Z,98681.17
2023-03-13T16:01:41.622Z,98682.67
2023-03-13T16:04:11.336Z,98684.15
2023-03-13T16:06:40.048Z,98686.32
2023-03-13T16:09:08.835Z,98685.56
2023-03-13T16:11:36.966Z,98693.56
2023-03-13T16:14:05.612Z,98695.33
2023-03-13T16:16:37.674Z,98686.55
2023-03-13T16:19:07.770Z,98693.02
2023-03-13T16:21:40.595Z,98694.66
2023-03-13T16:24:09.007Z,98698.19
2023-03-13T16:26:37.342Z,98706.92
2023-03-13T16:29:05.888Z,98709.38
2023-03-13T16:31:34.105Z,98703.50
2023-03-13T16:34:03.564Z,98701.61
2023-03-13T16:36:32.503Z,98703.72
2023-03-13T16:39:04.316Z,98702.50
2023-03-13T16:41:33.054Z,98707.21
2023-03-13T16:44:02.909Z,98698.78
2023-03-13T16:46:40.102Z,98698.11
2023-03-13T16:49:14.000Z,98698.54
2023-03-13T16:51:42.331Z,98695.02
2023-03-13T16:54:12.185Z,98704.86
2023-03-13T16:56:43.372Z,98716.75
2023-03-13T16:59:21.627Z,98716.29
2023-03-13T17:01:50.337Z,98720.83
2023-03-13T17:04:18.828Z,98727.98
2023-03-13T17:06:47.910Z,98719.20
2023-03-13T17:09:17.786Z,98718.76
2023-03-13T17:11:46.004Z,98716.42
2023-03-13T17:14:14.203Z,98712.33
2023-03-13T17:16:44.714Z,98705.61
2023-03-13T17:19:14.496Z,98716.94
2023-03-13T17:21:42.968Z,98710.73
2023-03-13T17:24:11.343Z,98699.89
2023-03-13T17:26:40.814Z,98695.80
2023-03-13T17:29:15.973Z,98701.93
2023-03-13T17:31:44.909Z,98709.30
2023-03-13T17:34:13.189Z,98698.61
2023-03-13T17:36:41.543Z,98692.45
2023-03-13T17:39:13.109Z,98686.02
2023-03-13T17:41:41.847Z,98689.27
2023-03-13T17:44:10.086Z,98691.08
2023-03-13T17:46:42.276Z,98688.55
2023-03-13T17:49:11.699Z,98678.36
2023-03-13T17:51:46.229Z,98690.81
2023-03-13T17:54:16.030Z,98688.87
2023-03-13T17:56:45.390Z,98694.84
2023-03-13T17:59:18.710Z,98697.49
2023-03-13T18:01:47.045Z,98697.07
2023-03-13T18:04:15.293Z,98694.89
2023-03-13T18:06:46.153Z,98694.61
2023-03-13T18:09:20.800Z,98702.70
2023-03-13T18:11:49.913Z,98708.30
2023-03-13T18:14:18.141Z,98703.83
2023-03-13T18:16:48.334Z,98692.80
2023-03-13T18:19:22.421Z,98689.23
2023-03-13T18:21:53.765Z,98686.04
2023-03-13T18:24:23.007Z,98697.02
2023-03-13T18:26:51.440Z,98696.52
2023-03-13T18:29:29.297Z,98680.12
2023-03-13T18:32:00.499Z,98673.95
2023-03-13T18:34:29.735Z,98669.93
2023-03-13T18:37:04.132Z,98676.60
2023-03-13T18:39:33.107Z,98682.95
2023-03-13T18:42:02.220Z,98669.95
2023-03-13T18:44:30.306Z,98649.38
2023-03-13T18:46:58.816Z,98648.58
2023-03-13T18:49:26.940Z,98650.17
2023-03-13T18:51:55.853Z,98657.72
2023-03-13T18:54:24.196Z,98657.42
2023-03-13T18:56:52.280Z,98662.12
2023-03-13T18:59:22.547Z,98645.48
2023-03-13T19:01:51.272Z,98643.80
2023-03-13T19:04:20.258Z,98640.52
2023-03-13T19:06:48.524Z,98643.17
2023-03-13T19:12:07.622Z,98645.02
2023-03-13T19:14:35.890Z,98652.55
2023-03-13T19:17:07.269Z,98644.34
2023-03-13T19:19:35.473Z,98643.32
2023-03-13T19:22:03.695Z,98637.63
2023-03-13T19:24:32.111Z,98645.66
2023-03-13T19:27:00.509Z,98642.36
2023-03-13T19:29:29.125Z,98640.70
2023-03-13T19:31:59.319Z,98634.52
2023-03-13T19:34:27.596Z,98633.34
2023-03-13T19:36:55.771Z,98639.81
2023-03-13T19:39:25.686Z,98640.02
2023-03-13T19:41:54.244Z,98631.34
2023-03-13T19:44:22.403Z,98620.59
2023-03-13T19:46:56.022Z,98615.45
2023-03-13T19:49:24.164Z,98615.74
2023-03-13T19:51:52.363Z,98615.36
2023-03-13T19:54:20.529Z,98614.59
2023-03-13T19:56:49.629Z,98616.27
2023-03-13T19:59:20.865Z,98614.08
2023-03-13T20:01:49.384Z,98606.21
2023-03-13T20:04:17.502Z,98608.17
2023-03-13T20:06:45.857Z,98609.30
2023-03-13T20:09:17.176Z,98627.59
2023-03-13T20:11:45.405Z,98609.92
2023-03-13T20:14:13.492Z,98599.01
2023-03-13T21:10:31.193Z,98555.49
2023-03-13T21:12:59.346Z,98554.20
2023-03-13T21:15:27.437Z,98556.80
2023-03-13T21:17:56.545Z,98559.16
2023-03-13T21:20:25.408Z,98549.84
2023-03-13T21:22:53.847Z,98546.34
2023-03-13T21:25:22.693Z,98550.94
2023-03-13T21:27:50.820Z,98543.23
2023-03-13T21:30:21.416Z,98530.74
2023-03-13T21:32:49.574Z,98529.85
2023-03-13T21:35:17.865Z,98517.71
2023-03-13T21:37:45.994Z,98528.44
2023-03-13T21:40:14.415Z,98513.09
2023-03-13T21:42:42.649Z,98522.46
2023-03-13T21:45:11.225Z,98525.98
2023-03-13T21:47:39.504Z,98516.13
2023-03-13T21:50:10.193Z,98517.75
2023-03-13T21:52:41.308Z,98519.55
2023-03-13T21:55:12.872Z,98525.62
2023-03-13T21:57:41.290Z,98520.48
2023-03-13T22:00:10.755Z,98508.92
2023-03-13T22:02:38.972Z,98502.04
2023-03-13T22:05:08.202Z,98509.02
2023-03-13T22:07:36.936Z,98513.55
2023-03-13T22:10:05.441Z,98521.60
2023-03-13T22:12:34.004Z,98513.64
2023-03-13T22:15:02.052Z,98500.57
2023-03-13T22:17:30.204Z,98517.38
2023-03-13T22:19:58.468Z,98497.40
2023-03-13T22:22:26.664Z,98486.80
2023-03-13T22:24:54.669Z,98492.73
2023-03-13T22:27:24.288Z,98489.46
2023-03-13T22:29:52.520Z,98485.21
2023-03-13T22:32:20.646Z,98481.05
2023-03-13T22:34:49.329Z,98472.71
2023-03-13T22:37:19.731Z,98470.05
2023-03-13T22:39:50.142Z,98463.77
2023-03-13T22:42:18.267Z,98459.52
2023-03-13T22:44:46.380Z,98458.98
2023-03-13T22:47:14.667Z,98455.17
2023-03-13T22:49:42.766Z,98461.33
2023-03-13T22:52:10.794Z,98467.99
2023-03-13T22:54:39.084Z,98462.95
2023-03-13T22:57:07.207Z,98439.04
2023-03-13T22:59:35.631Z,98435.61
2023-03-13T23:02:04.081Z,98428.70
2023-03-13T23:04:32.356Z,98430.77
2023-03-13T23:07:00.469Z,98441.50
2023-03-13T23:09:28.537Z,98443.55
2023-03-13T23:11:56.720Z,98450.46
2023-03-13T23:14:29.093Z,98457.73
2023-03-13T23:16:57.864Z,98449.38
2023-03-13T23:19:26.106Z,98453.85
2023-03-13T23:21:54.608Z,98455.45
2023-03-13T23:24:22.700Z,98455.27
2023-03-13T23:26:50.830Z,98454.04
2023-03-13T23:29:18.936Z,98451.73
2023-03-13T23:31:47.036Z,98448.79
2023-03-13T23:34:21.641Z,98456.23
2023-03-13T23:36:49.923Z,98456.54
2023-03-13T23:39:18.377Z,98448.05
2023-03-13T23:41:46.505Z,98435.21
2023-03-13T23:44:14.643Z,98437.94
2023-03-13T23:46:42.697Z,98437.01
2023-03-13T23:49:12.868Z,98448.41
2023-03-13T23:51:41.102Z,98427.20
2023-03-13T23:54:09.177Z,98435.81
2023-03-13T23:56:37.405Z,98436.13
2023-03-13T23:59:05.625Z,98447.14
